createdAt,value
2022-09-04T00:02:32.800Z,2.30
2022-09-04T00:05:43.572Z,2.33
2022-09-04T00:08:57.077Z,2.28
2022-09-04T00:12:08.954Z,2.10
2022-09-04T00:15:23.109Z,2.00
2022-09-04T00:18:25.402Z,2.10
2022-09-04T00:21:35.278Z,2.00
2022-09-04T00:24:40.189Z,2.13
2022-09-04T00:27:46.353Z,2.10
2022-09-04T00:31:00.840Z,2.25
2022-09-04T00:34:14.547Z,1.80
2022-09-04T00:37:22.110Z,2.10
2022-09-04T00:40:46.659Z,1.95
2022-09-04T00:44:07.599Z,2.13
2022-09-04T00:47:25.986Z,1.98
2022-09-04T00:51:05.045Z,2.13
2022-09-04T00:54:36.993Z,2.30
2022-09-04T00:57:57.659Z,1.98
2022-09-04T01:01:00.384Z,2.22
2022-09-04T01:04:26.823Z,2.08
2022-09-04T01:07:43.897Z,2.38
2022-09-04T01:11:01.829Z,2.15
2022-09-04T01:14:29.745Z,2.58
2022-09-04T01:17:43.975Z,2.05
2022-09-04T01:21:13.448Z,2.42
2022-09-04T01:24:55.757Z,2.13
2022-09-04T01:28:05.112Z,2.25
2022-09-04T01:31:28.542Z,2.08
2022-09-04T01:34:36.005Z,2.28
2022-09-04T01:37:55.645Z,2.30
2022-09-04T01:41:13.350Z,2.15
2022-09-04T01:44:15.139Z,2.25
2022-09-04T01:47:21.530Z,2.10
2022-09-04T01:50:26.635Z,2.13
2022-09-04T01:53:33.007Z,2.15
2022-09-04T01:56:48.475Z,2.28
2022-09-04T01:59:56.212Z,2.17
2022-09-04T02:03:25.330Z,2.40
2022-09-04T02:06:43.325Z,2.00
2022-09-04T02:10:03.753Z,2.47
2022-09-04T02:13:15.145Z,2.10
2022-09-04T02:16:37.234Z,2.13
2022-09-04T02:20:01.783Z,2.15
2022-09-04T02:23:20.756Z,2.13
2022-09-04T02:27:00.834Z,2.30
2022-09-04T02:30:10.420Z,2.20
2022-09-04T02:33:26.829Z,2.00
2022-09-04T02:36:38.632Z,2.20
2022-09-04T02:39:55.578Z,2.25
2022-09-04T02:43:06.185Z,2.30
2022-09-04T02:46:21.828Z,2.40
2022-09-04T02:49:29.551Z,2.30
2022-09-04T02:53:05.228Z,2.60
2022-09-04T02:56:18.989Z,2.13
2022-09-04T02:59:28.969Z,2.15
2022-09-04T03:02:38.515Z,2.00
2022-09-04T03:06:02.274Z,2.40
2022-09-04T03:09:09.378Z,2.10
2022-09-04T03:12:44.894Z,1.98
2022-09-04T03:15:49.611Z,2.17
2022-09-04T03:19:18.525Z,2.30
2022-09-04T03:22:27.197Z,2.30
2022-09-04T03:25:38.459Z,2.05
2022-09-04T03:28:55.293Z,2.35
2022-09-04T03:32:16.926Z,2.33
2022-09-04T03:35:44.171Z,2.38
2022-09-04T03:42:20.649Z,2.30
2022-09-04T03:45:36.089Z,2.50
2022-09-04T03:48:53.640Z,2.08
2022-09-04T03:52:01.498Z,2.17
2022-09-04T03:55:38.820Z,2.40
2022-09-04T04:02:37.713Z,2.10
2022-09-04T04:06:18.678Z,2.25
2022-09-04T04:09:40.474Z,2.40
2022-09-04T04:13:04.375Z,2.20
2022-09-04T04:16:32.086Z,2.38
2022-09-04T04:20:11.718Z,2.25
2022-09-04T04:23:47.565Z,2.25
2022-09-04T04:27:13.917Z,2.20
2022-09-04T04:30:17.694Z,2.22
2022-09-04T04:33:42.545Z,2.45
2022-09-04T04:37:00.388Z,2.50
2022-09-04T04:40:15.045Z,2.40
2022-09-04T04:43:41.755Z,2.13
2022-09-04T04:46:58.606Z,2.60
2022-09-04T04:50:15.886Z,2.42
2022-09-04T04:53:58.409Z,2.40
2022-09-04T04:57:44.451Z,2.20
2022-09-04T05:00:49.132Z,2.30
2022-09-04T05:04:06.795Z,2.42
2022-09-04T05:07:14.814Z,2.20
2022-09-04T05:10:19.597Z,2.50
2022-09-04T05:13:36.151Z,2.40
2022-09-04T05:16:56.082Z,2.42
2022-09-04T05:20:35.414Z,2.25
2022-09-04T05:23:59.041Z,2.25
2022-09-04T05:27:39.641Z,2.28
2022-09-04T05:31:09.482Z,2.40
2022-09-04T05:34:50.252Z,2.38
2022-09-04T05:38:22.243Z,2.30
2022-09-04T05:42:16.852Z,2.45
2022-09-04T05:45:28.823Z,2.40
2022-09-04T05:48:51.075Z,2.30
2022-09-04T05:52:10.599Z,2.10
2022-09-04T05:55:12.228Z,2.00
2022-09-04T05:58:47.734Z,2.05
2022-09-04T06:02:14.362Z,2.20
2022-09-04T06:05:31.281Z,2.13
2022-09-04T06:08:50.011Z,2.28
2022-09-04T06:12:23.021Z,2.25
2022-09-04T06:15:44.268Z,2.30
2022-09-04T06:19:06.229Z,2.50
2022-09-04T06:22:20.113Z,2.03
2022-09-04T06:25:31.927Z,2.20
2022-09-04T06:29:11.109Z,2.20
2022-09-04T06:32:44.021Z,2.38
2022-09-04T06:36:05.792Z,1.90
2022-09-04T06:39:22.168Z,2.13
2022-09-04T06:42:35.296Z,2.22
2022-09-04T06:45:50.432Z,2.22
2022-09-04T06:49:10.843Z,2.30
2022-09-04T06:52:25.288Z,2.30
2022-09-04T06:55:50.761Z,2.42
2022-09-04T06:59:04.460Z,2.00
2022-09-04T07:02:32.066Z,2.33
2022-09-04T07:05:51.393Z,2.40
2022-09-04T07:09:26.183Z,2.45
2022-09-04T07:12:49.362Z,2.40
2022-09-04T07:16:15.433Z,2.28
2022-09-04T07:19:24.890Z,2.10
2022-09-04T07:22:46.520Z,2.30
2022-09-04T07:25:53.828Z,2.30
2022-09-04T07:29:26.142Z,2.30
2022-09-04T07:32:36.556Z,2.05
2022-09-04T07:35:48.968Z,2.17
2022-09-04T07:39:08.437Z,2.50
2022-09-04T07:42:18.027Z,2.50
2022-09-04T07:45:30.115Z,2.40
2022-09-04T07:48:43.866Z,2.42
2022-09-04T07:52:07.652Z,2.30
2022-09-04T07:55:28.197Z,2.10
2022-09-04T07:58:50.532Z,2.40
2022-09-04T08:02:07.533Z,2.30
2022-09-04T08:05:31.626Z,2.30
2022-09-04T08:08:48.478Z,2.20
2022-09-04T08:12:25.716Z,2.30
2022-09-04T08:15:56.052Z,2.25
2022-09-04T08:19:15.706Z,2.40
2022-09-04T08:22:43.681Z,2.10
2022-09-04T08:26:42.921Z,2.45
2022-09-04T08:29:44.591Z,2.22
2022-09-04T08:33:13.047Z,2.45
2022-09-04T08:36:31.628Z,2.25
2022-09-04T08:40:15.270Z,2.50
2022-09-04T08:43:35.588Z,2.42
2022-09-04T08:46:53.007Z,2.35
2022-09-04T08:50:23.922Z,2.22
2022-09-04T08:53:52.651Z,2.45
2022-09-04T08:57:28.657Z,2.30
2022-09-04T09:00:42.715Z,2.20
2022-09-04T09:04:14.722Z,2.38
2022-09-04T09:07:50.356Z,2.25
2022-09-04T09:11:10.772Z,2.25
2022-09-04T09:14:42.533Z,2.60
2022-09-04T09:18:30.300Z,2.40
2022-09-04T09:21:49.346Z,2.20
2022-09-04T09:25:07.210Z,2.22
2022-09-04T09:29:00.187Z,2.15
2022-09-04T09:32:33.022Z,2.20
2022-09-04T09:35:54.684Z,2.10
2022-09-04T09:39:27.579Z,2.15
2022-09-04T09:42:57.392Z,2.10
2022-09-04T09:46:30.291Z,2.15
2022-09-04T09:50:20.722Z,2.20
2022-09-04T09:53:47.279Z,2.20
2022-09-04T09:57:07.831Z,2.10
2022-09-04T10:00:16.959Z,1.95
2022-09-04T10:03:32.497Z,2.13
2022-09-04T10:07:11.017Z,1.80
2022-09-04T10:10:37.707Z,1.90
2022-09-04T10:14:17.144Z,1.80
2022-09-04T10:17:56.576Z,1.83
2022-09-04T10:21:17.110Z,1.88
2022-09-04T10:25:03.402Z,1.40
2022-09-04T10:28:16.740Z,1.55
2022-09-04T10:31:30.654Z,1.70
2022-09-04T10:34:57.839Z,1.60
2022-09-04T10:38:13.695Z,1.70
2022-09-04T10:44:43.670Z,1.45
2022-09-04T10:47:48.719Z,1.55
2022-09-04T10:50:55.482Z,1.55
2022-09-04T10:54:22.373Z,1.70
2022-09-04T10:57:52.191Z,1.50
2022-09-04T11:01:27.358Z,1.60
2022-09-04T11:04:59.847Z,1.50
2022-09-04T11:08:37.009Z,1.50
2022-09-04T11:12:09.562Z,1.30
2022-09-04T11:15:30.299Z,1.60
2022-09-04T11:19:08.282Z,1.60
2022-09-04T11:22:47.946Z,1.60
2022-09-04T11:26:09.209Z,1.45
2022-09-04T11:29:41.293Z,1.52
2022-09-04T11:33:00.961Z,1.45
2022-09-04T11:36:36.732Z,1.40
2022-09-04T11:40:06.439Z,1.40
2022-09-04T11:43:36.839Z,1.38
2022-09-04T11:46:47.233Z,1.50
2022-09-04T11:50:20.193Z,1.35
2022-09-04T11:53:52.898Z,1.42
2022-09-04T11:57:37.026Z,1.50
2022-09-04T12:01:02.321Z,1.50
2022-09-04T12:04:33.921Z,1.40
2022-09-04T12:08:13.034Z,1.50
2022-09-04T12:12:02.552Z,1.50
2022-09-04T12:15:16.160Z,1.30
2022-09-04T12:18:37.005Z,1.25
2022-09-04T12:21:41.078Z,1.45
2022-09-04T12:24:49.144Z,1.58
2022-09-04T12:28:18.914Z,1.50
2022-09-04T12:31:42.443Z,1.30
2022-09-04T12:35:06.709Z,1.40
2022-09-04T12:38:15.239Z,1.40
2022-09-04T12:41:31.246Z,1.30
2022-09-04T12:44:54.442Z,1.38
2022-09-04T12:48:14.959Z,1.23
2022-09-04T12:51:21.373Z,1.50
2022-09-04T12:54:39.268Z,1.50
2022-09-04T12:58:05.789Z,1.30
2022-09-04T13:01:19.505Z,1.40
2022-09-04T13:04:27.889Z,1.20
2022-09-04T13:07:33.660Z,1.20
2022-09-04T13:11:00.946Z,1.40
2022-09-04T13:14:38.063Z,1.30
2022-09-04T13:18:08.665Z,1.42
2022-09-04T13:21:28.723Z,1.30
2022-09-04T13:24:59.535Z,1.40
2022-09-04T13:28:30.318Z,1.20
2022-09-04T13:32:00.921Z,1.48
2022-09-04T13:35:15.932Z,1.30
2022-09-04T13:38:48.697Z,1.30
2022-09-04T13:41:50.906Z,1.25
2022-09-04T13:45:05.881Z,1.30
2022-09-04T13:48:13.386Z,1.35
2022-09-04T13:51:23.424Z,1.38
2022-09-04T13:54:33.360Z,1.40
2022-09-04T13:57:57.809Z,1.20
2022-09-04T14:01:03.226Z,1.42
2022-09-04T14:04:11.432Z,1.40
2022-09-04T14:07:31.902Z,1.50
2022-09-04T14:10:48.916Z,1.38
2022-09-04T14:14:18.633Z,1.30
2022-09-04T14:17:26.893Z,1.30
2022-09-04T14:21:01.172Z,1.38
2022-09-04T14:24:34.194Z,1.33
2022-09-04T14:27:54.353Z,1.30
2022-09-04T14:31:10.811Z,1.40
2022-09-04T14:34:16.095Z,1.42
2022-09-04T14:37:48.504Z,1.55
2022-09-04T14:41:17.562Z,1.35
2022-09-04T14:44:28.063Z,1.38
2022-09-04T14:47:35.853Z,1.50
2022-09-04T14:50:50.733Z,1.40
2022-09-04T14:53:56.071Z,1.35
2022-09-04T14:57:02.453Z,1.30
2022-09-04T15:00:17.412Z,1.30
2022-09-04T15:03:26.448Z,1.30
2022-09-04T15:06:54.670Z,1.20
2022-09-04T15:10:14.082Z,1.50
2022-09-04T15:13:27.674Z,1.20
2022-09-04T15:16:46.651Z,1.48
2022-09-04T15:19:59.913Z,1.30
2022-09-04T15:23:11.792Z,1.42
2022-09-04T15:26:50.390Z,1.30
2022-09-04T15:29:52.278Z,1.30
2022-09-04T15:33:23.648Z,1.35
2022-09-04T15:36:27.557Z,1.20
2022-09-04T15:39:38.492Z,1.27
2022-09-04T15:42:56.677Z,1.30
2022-09-04T15:46:11.550Z,1.25
2022-09-04T15:49:19.069Z,1.50
2022-09-04T15:52:44.706Z,1.30
2022-09-04T15:59:18.227Z,1.30
2022-09-04T16:02:40.646Z,1.23
2022-09-04T16:05:49.222Z,1.40
2022-09-04T16:09:08.316Z,1.40
2022-09-04T16:12:20.656Z,1.30
2022-09-04T16:15:33.936Z,1.50
2022-09-04T16:18:38.435Z,1.20
2022-09-04T16:21:44.588Z,1.33
2022-09-04T16:24:48.914Z,1.50
2022-09-04T16:27:57.132Z,1.33
2022-09-04T16:31:23.246Z,1.25
2022-09-04T16:34:32.493Z,1.13
2022-09-04T16:37:50.232Z,1.30
2022-09-04T16:41:17.980Z,1.30
2022-09-04T16:44:34.434Z,1.40
2022-09-04T16:47:56.751Z,1.40
2022-09-04T16:51:40.130Z,1.30
2022-09-04T16:54:53.349Z,1.30
2022-09-04T16:58:35.081Z,1.30
2022-09-04T17:01:53.623Z,1.25
2022-09-04T17:05:34.813Z,1.27
2022-09-04T17:08:46.596Z,1.27
2022-09-04T17:12:00.505Z,1.27
2022-09-04T17:15:21.349Z,1.42
2022-09-04T17:18:25.185Z,1.40
2022-09-04T17:25:21.003Z,1.20
2022-09-04T17:28:56.418Z,1.40
2022-09-04T17:29:29.527Z,1.40
2022-09-04T17:34:54.552Z,1.40
2022-09-04T17:40:49.260Z,1.38
2022-09-04T17:40:50.972Z,1.35
2022-09-04T17:43:28.514Z,1.33
2022-09-04T17:46:44.342Z,1.40
2022-09-04T17:49:50.823Z,1.42
2022-09-04T17:53:08.214Z,1.40
2022-09-04T17:56:45.873Z,1.40
2022-09-04T17:59:53.493Z,1.50
2022-09-04T18:03:01.637Z,1.20
2022-09-04T18:06:09.005Z,1.60
2022-09-04T18:09:27.548Z,1.55
2022-09-04T18:12:37.104Z,1.73
2022-09-04T18:15:57.827Z,1.60
2022-09-04T18:19:17.080Z,1.60
2022-09-04T18:22:33.277Z,1.50
2022-09-04T18:25:44.278Z,1.40
2022-09-04T18:28:55.398Z,1.60
2022-09-04T18:37:23.716Z,1.42
2022-09-04T18:37:24.176Z,1.60
2022-09-04T18:39:49.001Z,1.50
2022-09-04T18:50:39.755Z,1.50
2022-09-04T18:50:42.917Z,1.70
2022-09-04T18:50:44.412Z,1.60
2022-09-04T18:54:08.418Z,1.40
2022-09-04T18:57:48.147Z,1.65
2022-09-04T19:00:56.729Z,1.52
2022-09-04T19:04:19.433Z,1.90
2022-09-04T19:07:32.644Z,1.70
2022-09-04T19:10:43.349Z,1.80
2022-09-04T19:14:09.929Z,1.60
2022-09-04T19:17:24.641Z,1.50
2022-09-04T19:20:36.909Z,1.70
2022-09-04T19:23:54.847Z,1.70
2022-09-04T19:26:56.748Z,1.80
2022-09-04T19:30:20.080Z,1.60
2022-09-04T19:33:39.835Z,1.60
2022-09-04T19:36:51.530Z,1.60
2022-09-04T19:46:01.523Z,1.52
2022-09-04T19:46:08.158Z,1.40
2022-09-04T19:47:28.464Z,1.42
2022-09-04T19:53:19.481Z,1.60
2022-09-04T19:54:01.933Z,1.58
2022-09-04T19:57:34.012Z,1.70
2022-09-04T20:00:55.034Z,1.90
2022-09-04T20:04:04.303Z,1.77
2022-09-04T20:07:11.173Z,1.80
2022-09-04T20:10:55.115Z,1.80
2022-09-04T20:14:13.605Z,1.70
2022-09-04T20:17:27.498Z,1.70
2022-09-04T20:20:36.352Z,1.60
2022-09-04T20:24:19.834Z,1.65
2022-09-04T20:27:29.012Z,1.70
2022-09-04T20:30:32.884Z,1.70
2022-09-04T20:33:38.482Z,1.98
2022-09-04T20:36:49.004Z,1.95
2022-09-04T20:40:05.336Z,1.55
2022-09-04T20:43:31.700Z,1.83
2022-09-04T20:52:42.142Z,1.90
2022-09-04T20:52:49.298Z,2.10
2022-09-04T20:54:14.733Z,1.92
2022-09-04T21:01:16.328Z,2.00
2022-09-04T21:03:17.249Z,1.90
2022-09-04T21:04:43.834Z,2.13
2022-09-04T21:07:54.142Z,1.90
2022-09-04T21:11:04.125Z,1.55
2022-09-04T21:14:45.825Z,1.90
2022-09-04T21:18:14.365Z,2.00
2022-09-04T21:21:41.399Z,1.90
2022-09-04T21:25:03.415Z,2.00
2022-09-04T21:28:29.896Z,1.80
2022-09-04T21:31:47.196Z,2.10
2022-09-04T21:35:14.308Z,1.98
2022-09-04T21:38:56.997Z,1.65
2022-09-04T21:41:58.989Z,1.83
2022-09-04T21:45:22.544Z,1.70
2022-09-04T21:48:42.864Z,1.80
2022-09-04T21:52:09.122Z,1.90
2022-09-04T21:59:36.703Z,1.85
2022-09-04T22:02:26.823Z,1.77
2022-09-04T22:03:05.617Z,2.05
2022-09-04T22:06:47.363Z,1.95
2022-09-04T22:13:33.108Z,1.90
2022-09-04T22:14:03.319Z,2.00
2022-09-04T22:17:50.922Z,1.80
2022-09-04T22:21:04.395Z,1.92
2022-09-04T22:24:21.384Z,1.90
2022-09-04T22:27:25.877Z,1.75
2022-09-04T22:30:38.854Z,2.10
2022-09-04T22:34:15.062Z,2.00
2022-09-04T22:37:53.137Z,1.95
2022-09-04T22:41:26.607Z,2.17
2022-09-04T22:45:06.871Z,1.90
2022-09-04T22:48:40.892Z,2.05
2022-09-04T22:52:13.312Z,1.92
2022-09-04T22:55:40.609Z,1.88
2022-09-04T22:59:25.879Z,2.20
2022-09-04T23:03:06.695Z,1.80
2022-09-04T23:10:26.785Z,1.95
2022-09-04T23:13:52.517Z,1.90
2022-09-04T23:14:05.371Z,1.90
2022-09-04T23:17:25.220Z,2.13
2022-09-04T23:23:53.481Z,2.30
2022-09-04T23:26:42.065Z,2.00
2022-09-04T23:28:51.855Z,1.80
2022-09-04T23:35:26.421Z,1.98
2022-09-04T23:39:05.854Z,2.00
2022-09-04T23:42:25.817Z,1.92
2022-09-04T23:45:57.890Z,1.88
2022-09-04T23:49:38.092Z,1.90
2022-09-04T23:52:55.529Z,2.03
2022-09-04T23:56:16.302Z,1.90
2022-09-04T23:59:37.994Z,1.85
